Terminal Aerodrome Forecast
Issued by NWS

Home | Current Version | Previous Version | Text Only | Print | Product List | Glossary On
Versions: 1 2 3 4 5 6 7 8 9 10 11 12 13 14 15 16
000
FTAK31 PANC 150712 AAA
TAFAIL
TAF AMD
PAIL 150712Z 1507/1606 36008KT P6SM FEW004 SCT035
      TEMPO 1507/1510 OVC004
     FM151000 07014G22KT P6SM FEW005 SCT180
     FM151500 09026G34KT P6SM -SN SCT005 SCT015 OVC030
     FM152200 09026G34KT P6SM -SHRA SCT015 OVC030 WS020/11060KT
     FM160100 11020G28KT P6SM -SHRA BKN015 OVC030=

USA.gov is the U.S. government's official web portal to all federal, state and local government web resources and services.